Latest Coastal Weather Observations for Bellambi

IDN60701

Issued at 10:21 pm EDT Saturday 25 November 2017 (issued every 10 minutes, with the page automatically refreshed every 10 minutes)

About coastal observations | Map of coastal stations | Coastal observations for NSW | Marine services | Other Formats
Station Details ID: 068228 Name: BELLAMBI AWS Lat: -34.37 Lon: 150.93 Height: 10.0 m
Data from the previous 72 hours. | See also: Recent months at Bellambi
Date/Time
EDT
Temp
°C
Wind Pressure Rain since
9am
mm
Weather Cloud Vis
km
Sea
Height
m
Swell
Dir  Spd
kts
Gust
kts
hPa Trend Height
m
Period
s
Dir
25/10:00pm 19.2 N 6 7 - - 0.0 - Partly cloudy - - - - -
25/09:30pm 18.9 N 7 7 - - 0.0 - Partly cloudy - - - - -
25/09:00pm 19.0 N 7 8 - - 0.0 - Mostly clear - - - - -
25/08:30pm 19.2 NNW 5 7 - - 0.0 - Partly cloudy - - - - -
25/08:00pm 19.5 N 5 6 - - 0.0 - Partly cloudy - - - - -
25/07:30pm 19.7 N 5 7 - - 0.0 - - - - - - -
25/07:00pm 20.0 NNE 6 11 - - 0.0 - Partly cloudy - - - - -
25/06:30pm 20.5 N 6 9 - - 0.0 - Partly cloudy - - - - -
25/06:00pm 20.7 NNE 6 10 - - 0.0 - Mostly clear - - - - -
25/05:30pm 21.0 NNE 4 6 - - 0.0 - Partly cloudy - - - - -
25/05:00pm 21.1 N 5 6 - - 0.0 - Cloudy - - - - -
25/04:30pm 21.0 N 7 8 - - 0.0 - Partly cloudy - - - - -
25/04:00pm 21.3 N 7 8 - - 0.0 - - - - - - -
25/03:30pm 22.2 NNE 8 12 - - 0.0 - - - - - - -
25/03:00pm 22.9 NNE 9 14 - - 0.0 - - - - - - -
25/02:30pm 22.3 NNE 8 10 - - 0.0 - - - - - - -
25/02:00pm 22.5 NNE 9 12 - - 0.0 - - - - - - -
25/01:30pm 22.7 NNE 10 13 - - 0.0 - - - - - - -
25/01:00pm 22.1 N 8 11 - - 0.0 - - - - - - -
25/12:30pm 21.9 N 7 9 - - 0.0 - - - - - - -
25/12:00pm 21.2 N 7 11 - - 0.0 - - - - - - -
25/11:30am 21.6 N 6 8 - - 0.0 - - - - - - -
25/11:00am 22.4 NNE 8 13 - - 0.0 - - - - - - -
25/10:30am 21.7 NNE 6 10 - - 0.0 - - - - - - -
25/10:00am 21.2 NE 6 10 - - 0.0 - - - - - - -
25/09:30am 20.4 NE 4 6 - - 0.0 - - - - - - -
25/09:00am 20.6 ENE 5 8 - - 0.0 - - - - - - -
25/08:30am 20.1 E 4 5 - - 0.0 - - - - - - -
25/08:00am 20.4 CALM 0 0 - - 0.0 - - - - - - -
25/07:30am 19.8 CALM 0 0 - - 0.0 - - - - - - -
25/07:00am 18.7 CALM 0 0 - - 0.0 - - - - - - -
25/06:30am 16.9 CALM 0 0 - - 0.0 - - - - - - -
25/06:00am 15.8 CALM 0 3 - - 0.0 - - - - - - -
25/05:30am 15.9 WNW 3 3 - - 0.0 - - - - - - -
25/05:00am 16.1 SW 4 5 - - 0.0 - - - - - - -
25/04:30am 16.3 NW 1 3 - - 0.0 - - - - - - -
25/04:00am 16.5 CALM 0 0 - - 0.0 - - - - - - -
25/03:30am 16.7 CALM 0 0 - - 0.0 - - - - - - -
25/03:00am 17.2 CALM 0 0 - - 0.0 - - - - - - -
25/02:30am 17.3 W 3 5 - - 0.0 - - - - - - -
25/02:00am 17.3 WNW 4 5 - - 0.0 - - - - - - -
25/01:30am 17.1 NW 3 5 - - 0.0 - - - - - - -
25/01:00am 17.2 WSW 4 5 - - 0.0 - - - - - - -
25/12:30am 17.5 SSW 3 4 - - 0.0 - - - - - - -
25/12:00am 17.8 WSW 5 6 - - 0.0 - - - - - - -
 
Date/Time
EDT
Temp
°C
Wind Pressure Rain since
9am
mm
Weather Cloud Vis
km
Sea
Height
m
Swell
Dir  Spd
kts
Gust
kts
hPa Trend Height
m
Period
s
Dir
24/11:30pm 17.7 NNW 3 5 - - 0.0 - - - - - - -
24/11:00pm 18.0 NNE 4 6 - - 0.0 - - - - - - -
24/10:30pm 18.3 N 5 7 - - 0.0 - - - - - - -
24/10:00pm 18.5 NNE 7 9 - - 0.0 - - - - - - -
24/09:30pm 18.8 N 7 8 - - 0.0 - - - - - - -
24/09:00pm 19.0 NNE 9 11 - - 0.0 - Mostly clear - - - - -
24/08:30pm 18.8 N 7 10 - - 0.0 - - - - - - -
24/08:00pm 19.1 NE 12 14 - - 0.0 - - - - - - -
24/07:30pm 19.0 NNW 7 8 - - 0.0 - - - - - - -
24/07:00pm 19.0 NE 9 11 - - 0.0 - - - - - - -
24/06:30pm 19.6 NNE 9 12 - - 0.0 - - - - - - -
24/06:00pm 20.5 N 7 9 - - 0.0 - Cloudy - - - - -
24/05:30pm 20.0 N 8 12 - - 0.0 - - - - - - -
24/05:00pm 19.8 NE 15 18 - - 0.0 - - - - - - -
24/04:30pm 20.0 NE 17 21 - - 0.0 - - - - - - -
24/04:00pm 20.5 N 11 13 - - 0.0 - - - - - - -
24/03:30pm 20.2 NNE 10 14 - - 0.0 - - - - - - -
24/03:00pm 20.9 N 9 11 - - 0.0 - - - - - - -
24/02:30pm 21.4 N 7 9 - - 0.0 - - - - - - -
24/02:00pm 21.8 N 7 8 - - 0.0 - - - - - - -
24/01:30pm 22.0 N 8 9 - - 0.0 - - - - - - -
24/01:00pm 21.7 N 8 10 - - 0.0 - - - - - - -
24/12:30pm 21.3 N 8 9 - - 0.0 - - - - - - -
24/12:00pm 20.3 N 7 9 - - 0.0 - - - - - - -
24/11:30am 20.6 N 7 8 - - 0.0 - - - - - - -
24/11:00am 20.4 NNE 7 9 - - 0.0 - - - - - - -
24/10:30am 21.3 NE 9 10 - - 0.0 - - - - - - -
24/10:00am 20.6 NNE 5 6 - - 0.0 - - - - - - -
24/09:30am 19.4 NNE 6 8 - - 0.0 - Partly cloudy - - - - -
24/09:00am 19.2 NE 8 9 - - 0.0 - Mostly cloudy - - - - -
24/08:30am 20.1 ENE 6 7 - - 0.0 - Partly cloudy - - - - -
24/08:00am 19.6 NE 3 5 - - 0.0 - - - - - - -
24/07:30am 18.8 N 3 4 - - 0.0 - - - - - - -
24/07:00am 18.5 CALM 0 0 - - 0.0 - - - - - - -
24/06:30am 17.4 NW 3 4 - - 0.0 - - - - - - -
24/06:00am 17.0 N 3 4 - - 0.0 - - - - - - -
24/05:30am 16.7 CALM 0 0 - - 0.0 - - - - - - -
24/05:00am 16.7 CALM 0 0 - - 0.0 - - - - - - -
24/04:30am 17.0 NNW 3 5 - - 0.0 - - - - - - -
24/04:00am 17.0 CALM 0 0 - - 0.0 - - - - - - -
24/03:30am 17.0 NW 3 4 - - 0.0 - - - - - - -
24/03:00am 17.5 NNW 4 6 - - 0.0 - - - - - - -
24/02:30am 17.8 NNW 3 4 - - 0.0 - - - - - - -
24/02:00am 18.1 NNE 5 6 - - 0.0 - - - - - - -
24/01:30am 17.9 NNE 5 7 - - 0.0 - - - - - - -
24/01:00am 18.4 N 9 12 - - 0.0 - - - - - - -
24/12:30am 18.2 NNE 11 13 - - 0.0 - - - - - - -
24/12:00am 18.5 NNE 11 13 - - 0.0 - Partly cloudy - - - - -
 
Date/Time
EDT
Temp
°C
Wind Pressure Rain since
9am
mm
Weather Cloud Vis
km
Sea
Height
m
Swell
Dir  Spd
kts
Gust
kts
hPa Trend Height
m
Period
s
Dir
23/11:30pm 18.7 N 12 15 - - 0.0 - Partly cloudy - - - - -
23/11:00pm 18.4 NNE 10 12 - - 0.0 - - - - - - -
23/10:30pm 18.7 N 7 8 - - 0.0 - - - - - - -
23/10:00pm 18.8 N 4 5 - - 0.0 - - - - - - -
23/09:30pm 19.0 CALM 0 0 - - 0.0 - - - - - - -
23/09:00pm 19.5 W 3 5 - - 0.0 - Cloudy - - - - -
23/08:30pm 18.8 NW 4 6 - - 0.0 - - - - - - -
23/08:00pm 18.9 N 5 6 - - 0.0 - Partly cloudy - - - - -
23/07:30pm 19.1 NNE 11 14 - - 0.0 - - - - - - -
23/07:00pm 19.5 NE 15 17 - - 0.0 - - - - - - -
23/06:30pm 19.4 NE 13 15 - - 0.0 - - - - - - -
23/06:00pm 19.8 NE 13 15 - - 0.0 - - - - - - -
23/05:30pm 19.9 NE 15 16 - - 0.0 - - - - - - -
23/05:00pm 20.5 NE 13 15 - - 0.0 - - - - - - -
23/04:30pm 20.7 NE 15 17 - - 0.0 - - - - - - -
23/04:00pm 21.0 NE 16 19 - - 0.0 - - - - - - -
23/03:30pm 21.1 NE 15 17 - - 0.0 - - - - - - -
23/03:00pm 21.3 NE 14 17 - - 0.0 - - - - - - -
23/02:30pm 21.7 NE 14 17 - - 0.0 - - - - - - -
23/02:00pm 21.9 NNE 9 12 - - 0.0 - - - - - - -
23/01:30pm 21.8 NE 13 17 - - 0.0 - - - - - - -
23/01:00pm 21.5 NNE 9 12 - - 0.0 - - - - - - -
23/12:30pm 20.3 NNE 7 10 - - 0.0 - - - - - - -
23/12:00pm 20.6 N 6 10 - - 0.0 - - - - - - -
23/11:30am 20.5 N 6 8 - - 0.0 - - - - - - -
23/11:00am 20.7 NNE 6 9 - - 0.0 - - - - - - -
23/10:30am 20.9 ENE 10 11 - - 0.0 - - - - - - -
23/10:00am 20.8 E 6 8 - - 0.0 - - - - - - -
23/09:30am 19.9 E 7 7 - - 0.0 - - - - - - -
23/09:00am 19.5 ENE 7 9 - - 0.6 - - - - - - -
23/08:30am 19.1 ENE 6 8 - - 0.6 - - - - - - -
23/08:00am 19.1 ENE 3 5 - - 0.6 - - - - - - -
23/07:30am 19.1 ENE 3 4 - - 0.6 - - - - - - -
23/07:00am 18.3 CALM 0 0 - - 0.6 - - - - - - -
23/06:30am 17.3 WNW 3 4 - - 0.6 - - - - - - -
23/06:00am 17.2 NW 4 4 - - 0.6 - Partly cloudy - - - - -
23/05:30am 17.3 CALM 0 0 - - 0.6 - Cloudy - - - - -
23/05:00am 17.2 NW 1 4 - - 0.6 - Cloudy - - - - -
23/04:30am 17.3 NW 3 5 - - 0.6 - Partly cloudy - - - - -
23/04:00am 17.2 NW 1 4 - - 0.6 - Partly cloudy - - - - -
23/03:30am 17.6 NNW 5 7 - - 0.6 - Partly cloudy - - - - -
23/03:00am 17.1 NW 2 4 - - 0.6 - Mostly clear - - - - -
23/02:30am 17.3 NW 6 7 - - 0.6 - - - - - - -
23/02:00am 17.4 NW 6 8 - - 0.6 - Partly cloudy - - - - -
23/01:30am 17.8 N 8 10 - - 0.6 - - - - - - -
23/01:00am 17.6 NNW 8 9 - - 0.6 - - - - - - -
23/12:30am 17.6 NNW 7 8 - - 0.6 - - - - - - -
23/12:00am 17.3 NW 4 5 - - 0.6 - - - - - - -
 
Date/Time
EDT
Temp
°C
Wind Pressure Rain since
9am
mm
Weather Cloud Vis
km
Sea
Height
m
Swell
Dir  Spd
kts
Gust
kts
hPa Trend Height
m
Period
s
Dir
22/11:30pm 17.4 NW 5 6 - - 0.6 - - - - - - -
22/11:00pm 17.4 NW 3 4 - - 0.6 - Partly cloudy - - - - -
22/10:30pm 17.7 NNW 4 6 - - 0.6 - - - - - - -

Other Formats:

Comma delimited format used in spreadsheet applications
http://www.bom.gov.au/fwo/IDN60701/IDN60701.94749.axf

JavaScript Object Notation format (JSON) in row-major order
http://www.bom.gov.au/fwo/IDN60701/IDN60701.94749.json